Villa Guasayan, Argentina
Current Conditions -  °F | °C
As of 4:00 AM on Saturday 29 Nov 2014 (Local Time) from SANT Reporting Station
Clear Clear  
Wind Chill: 81°   Ceiling: Unl
Heat Index: 82°   Visibility: 6mi
Dew Point: 63°   Wind: 14mph
Humidity: 54%   Direction: 360°N
Pressure: 29.59"   Gusts: NA
Location:  27.88°S, 64.85°W
Report Text: SANT 290700Z 36012KT 9000 NSC 27/17 Q1002
Loading
Personal Weather Stations






























Interactive Weather Map New forecast layout! Learn more

10-Day Weather Forecast

Advertisements
Track Severe Weather on mobile